Exning, United Kingdom
Current Conditions -  °F | °C
As of 8:08 PM on Wednesday 26 Nov 2014 (Local Time) from EGUN Reporting Station
Moderate Fog Moderate Fog  
Wind Chill: 48°   Ceiling: 200
Heat Index: 48°   Visibility: 0.5mi
Dew Point: 48°   Wind: 0mph
Humidity: 100%   Direction: NA
Pressure: 29.78"   Gusts: NA
Location:  52.27°N, 0.37°E
Report Text: EGUN 262008Z AUTO 00000KT 0800 R11/0300 FG VV002 09/09 A2978 RMK AO2 $
Loading
Personal Weather Stations






























Interactive Weather Map New forecast layout! Learn more

10-Day Weather Forecast

Advertisements
Track Severe Weather on mobile